createdAt,value
2022-09-26T11:30:33.991Z,100586.75
2022-09-26T11:35:46.825Z,100589.31
2022-09-26T11:41:02.807Z,100585.19
2022-09-26T11:46:21.716Z,100578.41
2022-09-26T11:51:51.336Z,100583.47
2022-09-26T11:56:55.253Z,100564.78
2022-09-26T12:02:09.374Z,100571.94
2022-09-26T12:07:20.260Z,100564.53
2022-09-26T12:12:24.365Z,100572.78
2022-09-26T12:17:36.375Z,100567.47
2022-09-26T12:22:40.532Z,100545.97
2022-09-26T12:27:42.428Z,100560.19
2022-09-26T12:32:57.735Z,100535.28
2022-09-26T12:38:44.904Z,100549.59
2022-09-26T12:44:07.765Z,100538.09
2022-09-26T12:49:22.797Z,100522.94
2022-09-26T12:54:41.367Z,100524.25
2022-09-26T13:00:10.037Z,100521.75
2022-09-26T13:05:40.734Z,100515.19
2022-09-26T13:10:57.152Z,100514.97
2022-09-26T13:16:08.308Z,100500.28
2022-09-26T13:21:12.752Z,100499.63
2022-09-26T13:26:15.582Z,100493.81
2022-09-26T13:31:19.842Z,100483.19
2022-09-26T13:36:22.318Z,100478.28
2022-09-26T13:41:35.197Z,100481.72
2022-09-26T13:46:43.239Z,100474.59
2022-09-26T13:51:49.701Z,100481.38
2022-09-26T13:56:50.013Z,100465.13
2022-09-26T14:02:33.290Z,100465.91
2022-09-26T14:08:08.508Z,100463.06
2022-09-26T14:13:18.287Z,100454.53
2022-09-26T14:18:48.804Z,100468.41
2022-09-26T14:23:50.174Z,100438.13
2022-09-26T14:28:52.990Z,100451.38
2022-09-26T14:34:05.664Z,100449.34
2022-09-26T14:39:06.460Z,100446.81
2022-09-26T14:44:07.611Z,100445.00
2022-09-26T14:49:08.487Z,100439.75
2022-09-26T14:54:20.324Z,100436.69
2022-09-26T14:59:45.817Z,100433.50
2022-09-26T15:04:46.328Z,100426.22
2022-09-26T15:09:51.183Z,100417.28
2022-09-26T15:14:53.959Z,100404.97
2022-09-26T15:19:56.058Z,100410.78
2022-09-26T15:24:56.540Z,100405.31
2022-09-26T15:29:58.038Z,100405.19
2022-09-26T15:34:57.997Z,100395.78
2022-09-26T15:39:58.287Z,100409.19
2022-09-26T15:44:58.752Z,100412.59
2022-09-26T15:50:12.305Z,100401.00
2022-09-26T15:55:19.450Z,100407.34
2022-09-26T16:00:18.919Z,100398.75
2022-09-26T16:05:17.496Z,100397.88
2022-09-26T16:10:33.360Z,100391.06
2022-09-26T16:15:32.261Z,100373.91
2022-09-26T16:20:32.197Z,100395.72
2022-09-26T16:25:35.180Z,100383.44
2022-09-26T16:30:43.904Z,100376.53
2022-09-26T16:35:46.656Z,100386.59
2022-09-26T16:40:52.056Z,100393.00
2022-09-26T16:45:54.408Z,100398.59
2022-09-26T16:51:13.588Z,100397.16
2022-09-26T16:56:16.676Z,100399.97
2022-09-26T17:01:46.814Z,100399.28
2022-09-26T17:06:45.261Z,100381.94
2022-09-26T17:11:47.809Z,100406.22
2022-09-26T17:16:47.055Z,100406.50
2022-09-26T17:21:46.510Z,100420.72
2022-09-26T17:26:53.351Z,100411.72
2022-09-26T17:31:52.572Z,100414.72
2022-09-26T17:36:51.202Z,100413.50
2022-09-26T17:41:51.435Z,100416.13
2022-09-26T17:46:52.341Z,100416.00
2022-09-26T17:51:51.004Z,100415.94
2022-09-26T17:56:53.798Z,100415.19
2022-09-26T18:01:55.304Z,100408.28
2022-09-26T18:06:53.825Z,100410.00
2022-09-26T18:12:00.764Z,100415.59
2022-09-26T18:16:59.026Z,100412.53
2022-09-26T18:21:58.890Z,100396.09
2022-09-26T18:27:03.885Z,100410.66
2022-09-26T18:32:03.382Z,100396.13
2022-09-26T18:37:02.377Z,100394.06
2022-09-26T18:42:06.182Z,100399.91
2022-09-26T18:47:07.904Z,100408.53
2022-09-26T18:52:08.728Z,100395.66
2022-09-26T18:57:25.586Z,100381.78
2022-09-26T19:02:26.978Z,100382.75
2022-09-26T19:07:25.766Z,100372.63
2022-09-26T19:12:25.395Z,100378.94
2022-09-26T19:17:24.014Z,100371.09
2022-09-26T19:22:26.167Z,100368.03
2022-09-26T19:27:29.392Z,100364.50
2022-09-26T19:32:36.072Z,100343.16
2022-09-26T19:37:34.228Z,100369.59
2022-09-26T19:42:33.787Z,100360.16
2022-09-26T19:47:34.665Z,100358.25
2022-09-26T19:52:33.349Z,100350.94
2022-09-26T19:57:35.974Z,100357.09
2022-09-26T20:02:34.629Z,100360.41
2022-09-26T20:07:32.995Z,100344.06
2022-09-26T20:12:31.386Z,100344.31
2022-09-26T20:17:31.548Z,100337.13
2022-09-26T20:22:30.072Z,100323.22
2022-09-26T20:27:30.380Z,100331.13
2022-09-26T20:32:28.909Z,100325.13
2022-09-26T20:37:29.777Z,100304.16
2022-09-26T20:42:35.089Z,100304.03
2022-09-26T20:47:35.578Z,100295.84
2022-09-26T20:52:35.404Z,100285.84
2022-09-26T20:57:33.671Z,100285.91
2022-09-26T21:02:39.337Z,100286.00
2022-09-26T21:07:39.108Z,100292.13
2022-09-26T21:12:37.265Z,100291.00
2022-09-26T21:17:35.501Z,100289.59
2022-09-26T21:22:36.925Z,100285.66
2022-09-26T21:27:36.513Z,100283.19
2022-09-26T21:32:35.842Z,100273.22
2022-09-26T21:37:34.084Z,100276.88
2022-09-26T21:42:32.285Z,100263.84
2022-09-26T21:47:32.779Z,100256.03
2022-09-26T21:52:37.025Z,100270.44
2022-09-26T21:57:39.021Z,100252.72
2022-09-26T22:02:40.316Z,100229.00
2022-09-26T22:07:38.788Z,100251.84
2022-09-26T22:12:37.293Z,100252.81
2022-09-26T22:17:35.570Z,100239.31
2022-09-26T22:22:35.162Z,100231.81
2022-09-26T22:27:34.487Z,100230.72
2022-09-26T22:32:32.858Z,100228.19
2022-09-26T22:37:31.271Z,100208.19
2022-09-26T22:42:31.002Z,100200.28
2022-09-26T22:47:29.155Z,100210.13
2022-09-26T22:52:27.385Z,100196.94
2022-09-26T22:57:26.352Z,100230.72
2022-09-26T23:02:25.966Z,100222.66
2022-09-26T23:07:24.186Z,100218.47
2022-09-26T23:12:22.463Z,100214.88
2022-09-26T23:17:20.796Z,100219.00
2022-09-26T23:22:20.375Z,100197.31
2022-09-26T23:27:18.603Z,100205.72
2022-09-26T23:32:16.750Z,100213.06
2022-09-26T23:37:14.918Z,100206.78
2022-09-26T23:42:14.552Z,100211.50
2022-09-26T23:47:12.699Z,100206.22
2022-09-26T23:52:10.923Z,100193.84
2022-09-26T23:57:09.177Z,100200.81
